Time;durP1;ratioP1;P1;durP2;ratioP2;P2;SDS_P1;SDS_P2;PMS_P1;PMS_P2;Temp;Humidity;BMP_temperature;BMP_pressure;BME280_temperature;BME280_humidity;BME280_pressure;Samples;Min_cycle;Max_cycle;Signal;HPM_P1;HPM_P2
2022/06/09 00:00:50;;;;;;;18.40;9.63;;;;;;;13.94;50.41;98892.88;4972580;28;20050;-68
2022/06/09 00:03:22;;;;;;;17.88;8.27;;;;;;;13.96;50.75;98888.06;4953662;28;20043;-69
2022/06/09 00:05:49;;;;;;;16.23;7.47;;;;;;;13.95;51.12;98889.94;4921028;29;20047;-69
2022/06/09 00:08:15;;;;;;;11.65;7.20;;;;;;;13.89;51.36;98883.03;4955115;28;20071;-69
2022/06/09 00:10:43;;;;;;;14.65;6.78;;;;;;;13.86;51.45;98883.59;4973266;28;20038;-68
2022/06/09 00:13:09;;;;;;;17.70;8.25;;;;;;;13.81;51.75;98889.69;4955629;28;20411;-68
2022/06/09 00:15:35;;;;;;;18.42;8.40;;;;;;;13.78;51.71;98892.13;4955220;28;20153;-69
2022/06/09 00:18:00;;;;;;;14.50;7.18;;;;;;;13.71;52.59;98881.75;4972854;28;20130;-69
2022/06/09 00:20:26;;;;;;;18.23;8.95;;;;;;;13.67;52.91;98893.19;4973035;28;20043;-69
2022/06/09 00:22:53;;;;;;;14.05;7.93;;;;;;;13.58;53.22;98883.09;4955280;28;20047;-70
2022/06/09 00:25:19;;;;;;;16.45;7.65;;;;;;;13.54;54.85;98883.91;4955522;28;20559;-69
2022/06/09 00:27:45;;;;;;;21.23;7.70;;;;;;;13.50;53.27;98882.84;4972412;28;20078;-69
2022/06/09 00:30:12;;;;;;;15.07;8.15;;;;;;;13.49;52.85;98879.38;4954914;28;20145;-69
2022/06/09 00:32:38;;;;;;;13.98;7.15;;;;;;;13.52;53.05;98875.38;4972433;28;20057;-69
2022/06/09 00:35:04;;;;;;;14.27;7.65;;;;;;;13.51;54.62;98881.78;4972882;28;20038;-70
2022/06/09 00:37:30;;;;;;;19.90;8.48;;;;;;;13.43;58.25;98871.69;4939013;28;20531;-69
2022/06/09 00:39:57;;;;;;;18.33;9.40;;;;;;;13.34;61.86;98871.41;4955491;28;20051;-70
2022/06/09 00:42:23;;;;;;;20.27;10.30;;;;;;;13.22;64.42;98871.66;4954925;28;20043;-69
2022/06/09 00:44:49;;;;;;;25.90;11.38;;;;;;;13.12;65.91;98869.81;4972025;28;20514;-69
2022/06/09 00:47:14;;;;;;;26.65;10.93;;;;;;;13.04;65.19;98867.69;4972081;28;20046;-67
2022/06/09 00:49:53;;;;;;;19.75;10.50;;;;;;;13.00;66.63;98874.59;4954814;28;20559;-69
2022/06/09 00:52:20;;;;;;;22.85;10.50;;;;;;;12.99;66.38;98872.19;4954991;28;20043;-69
2022/06/09 00:54:52;;;;;;;26.23;10.48;;;;;;;13.04;66.48;98880.97;4972286;28;20043;-68
2022/06/09 00:57:28;;;;;;;18.00;10.20;;;;;;;13.16;66.69;98875.41;4971578;28;20509;-69
2022/06/09 00:59:57;;;;;;;19.33;10.05;;;;;;;13.32;66.22;98868.22;4972311;28;20114;-69
2022/06/09 01:02:23;;;;;;;19.02;10.23;;;;;;;13.48;66.21;98877.00;4972050;28;20058;-69
2022/06/09 01:04:51;;;;;;;18.35;9.98;;;;;;;13.58;65.99;98871.66;4954764;28;20039;-69
2022/06/09 01:07:24;;;;;;;17.85;10.50;;;;;;;13.64;66.01;98875.91;4954902;28;20049;-69
2022/06/09 01:09:49;;;;;;;20.50;10.00;;;;;;;13.73;66.12;98879.59;4939036;28;20504;-69
2022/06/09 01:12:25;;;;;;;17.55;10.13;;;;;;;13.89;65.06;98871.59;4972001;28;20113;-69
2022/06/09 01:14:59;;;;;;;15.80;9.48;;;;;;;14.09;64.48;98864.31;4971734;28;20066;-70
2022/06/09 01:17:26;;;;;;;31.20;11.32;;;;;;;14.27;64.20;98870.91;4955289;28;20043;-69
2022/06/09 01:20:11;;;;;;;18.73;10.55;;;;;;;14.46;63.15;98875.59;4972324;28;20047;-69
2022/06/09 01:23:02;;;;;;;16.23;9.98;;;;;;;14.68;62.24;98875.25;4954638;28;20578;-69
2022/06/09 01:25:42;;;;;;;;;;;;;;;15.01;61.50;98870.22;4972411;28;20050;-69
2022/06/09 01:28:11;;;;;;;22.88;10.05;;;;;;;15.33;60.50;98877.69;4971955;28;19987;-70
2022/06/09 01:30:59;;;;;;;12.80;7.35;;;;;;;15.58;53.70;98872.09;4971750;28;20042;-69
2022/06/09 01:33:49;;;;;;;11.93;7.00;;;;;;;15.87;51.83;98873.97;4954495;28;20078;-70
2022/06/09 01:36:21;;;;;;;12.90;6.80;;;;;;;16.18;50.39;98871.72;4972245;28;20035;-69
2022/06/09 01:38:49;;;;;;;11.85;8.23;;;;;;;16.51;49.99;98867.28;4954503;28;20042;-70
2022/06/09 01:41:16;;;;;;;12.32;8.27;;;;;;;16.77;49.19;98861.59;4972092;28;20046;-69
2022/06/09 01:43:43;;;;;;;13.57;9.43;;;;;;;17.18;47.77;98869.78;4972309;28;20058;-70
2022/06/09 01:46:33;;;;;;;13.85;9.77;;;;;;;17.59;46.94;98869.06;4953990;28;20464;-69
2022/06/09 01:49:10;;;;;;;15.38;8.45;;;;;;;17.81;46.55;98873.00;4966579;28;20436;-69
2022/06/09 01:51:38;;;;;;;16.77;7.80;;;;;;;18.12;46.23;98870.50;4954682;28;20054;-69
2022/06/09 01:54:18;;;;;;;17.77;8.63;;;;;;;18.44;45.91;98874.13;4954321;28;20077;-70
2022/06/09 01:56:46;;;;;;;14.20;7.30;;;;;;;18.72;44.29;98867.59;4971620;28;20047;-69
2022/06/09 01:59:16;;;;;;;13.20;8.32;;;;;;;18.99;44.83;98865.91;4974605;28;20066;-69
2022/06/09 02:01:50;;;;;;;15.98;7.65;;;;;;;19.26;43.57;98868.47;4957608;28;20043;-69
2022/06/09 02:04:22;;;;;;;16.92;8.30;;;;;;;19.56;42.23;98863.44;4957747;28;20056;-69
2022/06/09 02:06:48;;;;;;;11.85;7.28;;;;;;;19.77;42.80;98862.91;4938873;29;20050;-69
2022/06/09 02:09:16;;;;;;;12.25;7.28;;;;;;;20.11;41.49;98871.06;4957577;28;20034;-69
2022/06/09 02:11:50;;;;;;;14.20;8.65;;;;;;;20.47;42.43;98869.22;4975021;28;20047;-69
2022/06/09 02:14:17;;;;;;;19.13;8.75;;;;;;;20.53;43.19;98860.75;4957294;28;20078;-70
2022/06/09 02:16:43;;;;;;;13.07;8.52;;;;;;;20.63;43.40;98863.09;4957410;28;20049;-69
2022/06/09 02:19:28;;;;;;;14.43;9.32;;;;;;;20.76;42.02;98866.75;4947271;28;20049;-70
2022/06/09 02:21:54;;;;;;;13.68;9.40;;;;;;;20.86;42.46;98874.50;4974842;28;20042;-69
2022/06/09 02:24:20;;;;;;;20.27;12.50;;;;;;;21.09;41.69;98867.06;4957131;28;20045;-69
2022/06/09 02:26:45;;;;;;;17.85;11.27;;;;;;;21.21;41.67;98874.47;4974565;28;20051;-69
2022/06/09 02:29:11;;;;;;;13.73;8.80;;;;;;;21.52;41.57;98874.25;4974596;28;20078;-69
2022/06/09 02:31:37;;;;;;;17.52;8.70;;;;;;;21.75;41.29;98869.41;4973968;28;20042;-69
2022/06/09 02:34:02;;;;;;;12.27;8.68;;;;;;;21.86;40.72;98869.84;4974355;28;20055;-69
2022/06/09 02:36:28;;;;;;;18.60;8.57;;;;;;;22.09;41.29;98866.88;4974401;28;20125;-69
2022/06/09 02:38:54;;;;;;;16.73;8.77;;;;;;;22.34;41.40;98871.34;4974320;28;20039;-69
2022/06/09 02:41:19;;;;;;;14.82;8.50;;;;;;;22.48;40.39;98879.22;4974764;28;20358;-69
2022/06/09 02:43:45;;;;;;;15.55;8.60;;;;;;;22.85;40.17;98884.78;4956996;28;20042;-70
2022/06/09 02:46:11;;;;;;;16.38;8.05;;;;;;;22.95;39.77;98883.66;4974370;28;20464;-69
2022/06/09 02:48:36;;;;;;;15.90;8.20;;;;;;;23.04;39.53;98878.94;4957101;28;20042;-70
2022/06/09 02:51:18;;;;;;;16.63;9.35;;;;;;;23.21;38.34;98880.72;4956629;28;20043;-69
2022/06/09 02:53:44;;;;;;;18.52;8.63;;;;;;;23.35;38.48;98878.47;4955035;28;20070;-69
2022/06/09 02:56:09;;;;;;;15.75;8.82;;;;;;;23.53;38.12;98879.06;4940201;28;20504;-69
2022/06/09 02:58:35;;;;;;;22.35;8.63;;;;;;;23.78;37.62;98872.59;4974462;28;20531;-69
2022/06/09 03:01:00;;;;;;;23.73;8.35;;;;;;;23.96;36.89;98884.00;4973750;28;20100;-70
2022/06/09 03:03:26;;;;;;;23.35;8.50;;;;;;;24.18;36.52;98879.25;4956595;28;20509;-69
2022/06/09 03:05:52;;;;;;;27.95;9.48;;;;;;;24.31;35.95;98880.81;4956755;28;20047;-69
2022/06/09 03:08:17;;;;;;;27.10;9.88;;;;;;;24.47;35.34;98881.72;4974275;28;20073;-69
2022/06/09 03:10:43;;;;;;;25.00;9.10;;;;;;;24.61;35.56;98880.56;4955285;28;20034;-68
2022/06/09 03:13:09;;;;;;;28.52;9.20;;;;;;;24.63;35.14;98881.00;4973451;28;20101;-70
2022/06/09 03:15:35;;;;;;;26.08;9.30;;;;;;;24.73;34.61;98883.22;4974075;28;20054;-69
2022/06/09 03:18:01;;;;;;;28.67;9.75;;;;;;;24.76;33.67;98887.16;4973393;28;20443;-70
2022/06/09 03:20:28;;;;;;;32.92;10.52;;;;;;;24.75;34.17;98874.75;4974040;28;20043;-68
2022/06/09 03:22:54;;;;;;;30.35;10.50;;;;;;;24.75;33.74;98878.25;4937245;29;20102;-70
2022/06/09 03:25:20;;;;;;;24.58;9.57;;;;;;;24.84;33.80;98873.47;4940100;28;20042;-69
2022/06/09 03:27:46;;;;;;;27.23;10.07;;;;;;;24.81;33.04;98885.00;4973442;28;20071;-69
2022/06/09 03:30:12;;;;;;;30.05;10.73;;;;;;;24.66;34.41;98888.44;4956328;28;20051;-69
2022/06/09 03:32:38;;;;;;;29.27;10.55;;;;;;;24.73;34.24;98885.94;4955687;28;20073;-69
2022/06/09 03:35:05;;;;;;;20.63;9.65;;;;;;;24.87;34.20;98890.97;4973492;28;20492;-69
2022/06/09 03:37:31;;;;;;;28.40;9.80;;;;;;;25.11;34.22;98882.72;4939870;28;20051;-69
2022/06/09 03:39:56;;;;;;;26.23;9.60;;;;;;;25.26;33.68;98883.16;4973187;28;20049;-69
2022/06/09 03:42:22;;;;;;;23.05;10.30;;;;;;;25.13;33.08;98887.81;4973064;28;20054;-69
2022/06/09 03:44:47;;;;;;;23.25;10.73;;;;;;;25.07;33.60;98884.56;4973292;28;20053;-69
2022/06/09 03:47:13;;;;;;;23.40;9.82;;;;;;;25.08;33.13;98883.41;4972890;28;20074;-69
2022/06/09 03:49:39;;;;;;;22.50;9.93;;;;;;;25.27;33.32;98884.75;4973403;28;20042;-70
2022/06/09 03:52:05;;;;;;;30.85;10.93;;;;;;;25.33;32.61;98881.41;4972747;28;20085;-70
2022/06/09 03:54:31;;;;;;;27.05;10.82;;;;;;;25.37;32.63;98879.56;4955966;28;20043;-70
2022/06/09 03:56:56;;;;;;;33.10;10.98;;;;;;;25.51;32.79;98883.81;4972686;28;20038;-70
2022/06/09 03:59:22;;;;;;;22.92;10.93;;;;;;;25.54;31.93;98886.59;4972812;28;20055;-68
2022/06/09 04:01:47;;;;;;;25.27;11.52;;;;;;;25.78;31.60;98891.06;4972630;28;20480;-69
2022/06/09 04:04:13;;;;;;;24.15;12.00;;;;;;;25.84;31.74;98897.06;4972598;28;20121;-68
2022/06/09 04:06:39;;;;;;;34.10;12.88;;;;;;;25.93;31.91;98899.59;4972677;28;20050;-68
2022/06/09 04:09:05;;;;;;;37.90;13.75;;;;;;;26.07;31.61;98888.28;4955460;28;20054;-70
2022/06/09 04:11:32;;;;;;;26.35;13.52;;;;;;;26.08;31.64;98887.91;4971712;28;20592;-69
2022/06/09 04:13:58;;;;;;;34.63;13.85;;;;;;;26.15;31.68;98890.00;4972249;28;20043;-70
2022/06/09 04:16:33;;;;;;;42.47;14.15;;;;;;;26.22;31.51;98882.81;4972310;28;20050;-67
2022/06/09 04:19:01;;;;;;;29.65;14.25;;;;;;;26.34;31.73;98886.56;4955166;28;20047;-69
2022/06/09 04:21:27;;;;;;;36.38;13.77;;;;;;;26.42;31.20;98880.16;4955089;28;20122;-69
2022/06/09 04:23:54;;;;;;;44.40;13.52;;;;;;;26.61;30.88;98884.84;4972731;28;20043;-69
2022/06/09 04:26:21;;;;;;;41.45;13.52;;;;;;;26.69;31.19;98889.28;4972114;28;20071;-69
2022/06/09 04:28:47;;;;;;;36.33;12.48;;;;;;;26.57;31.43;98892.16;4972710;28;20050;-69
2022/06/09 04:31:13;;;;;;;35.40;12.43;;;;;;;26.54;31.49;98887.41;4972331;28;20046;-66
2022/06/09 04:33:39;;;;;;;37.45;12.82;;;;;;;26.69;30.98;98889.28;4972031;28;20046;-68
2022/06/09 04:36:06;;;;;;;40.38;13.48;;;;;;;26.81;30.89;98889.16;4955043;28;20526;-67
2022/06/09 04:38:32;;;;;;;29.80;12.15;;;;;;;27.05;31.54;98890.00;4972511;28;20051;-69
2022/06/09 04:40:58;;;;;;;33.97;12.30;;;;;;;27.27;30.56;98889.28;4954418;28;20151;-68
2022/06/09 04:43:23;;;;;;;40.00;12.07;;;;;;;27.49;29.91;98887.72;4972314;28;20050;-67
2022/06/09 04:45:49;;;;;;;32.35;12.13;;;;;;;27.64;29.84;98889.53;4972413;28;20521;-68
2022/06/09 04:48:16;;;;;;;28.63;10.70;;;;;;;27.34;30.39;98888.63;4971644;28;20043;-69
2022/06/09 04:50:42;;;;;;;41.22;12.45;;;;;;;27.36;30.01;98892.56;4971799;28;20043;-67
2022/06/09 04:53:09;;;;;;;24.75;10.90;;;;;;;27.62;29.42;98889.13;4971601;28;20065;-68
2022/06/09 04:55:39;;;;;;;33.78;11.70;;;;;;;27.79;29.00;98890.56;4971790;28;20082;-68
2022/06/09 04:58:04;;;;;;;31.77;11.23;;;;;;;27.92;29.58;98893.13;4972115;28;20062;-67
2022/06/09 05:00:30;;;;;;;27.30;11.00;;;;;;;28.01;29.21;98893.66;4971828;28;20041;-68
2022/06/09 05:02:56;;;;;;;27.52;9.95;;;;;;;28.14;28.22;98897.72;4971597;28;20286;-68
2022/06/09 05:05:29;;;;;;;20.50;10.15;;;;;;;28.18;27.38;98898.59;4971948;28;20113;-67
2022/06/09 05:07:55;;;;;;;23.45;9.63;;;;;;;28.20;26.68;98895.47;4971811;28;20097;-67
2022/06/09 05:10:21;;;;;;;19.08;10.52;;;;;;;28.00;26.20;98903.78;4954834;28;20050;-68
2022/06/09 05:12:46;;;;;;;20.35;9.88;;;;;;;27.69;26.49;98895.84;4971308;28;20042;-68
2022/06/09 05:15:18;;;;;;;19.48;9.63;;;;;;;27.32;26.27;98891.69;4972073;28;20154;-69
2022/06/09 05:17:44;;;;;;;14.77;9.27;;;;;;;26.97;26.14;98899.94;4954228;28;20097;-69
2022/06/09 05:20:12;;;;;;;22.67;10.10;;;;;;;26.85;27.55;98894.66;4954649;28;20046;-68
2022/06/09 05:22:37;;;;;;;18.55;9.20;;;;;;;26.66;26.88;98887.28;4971276;28;20050;-69
2022/06/09 05:25:04;;;;;;;30.30;9.98;;;;;;;26.50;27.86;98884.59;4971349;28;20050;-70
2022/06/09 05:27:30;;;;;;;19.42;9.18;;;;;;;26.43;27.50;98890.66;4971151;28;20094;-70
2022/06/09 05:29:55;;;;;;;17.40;9.15;;;;;;;26.22;28.14;98888.25;4971806;28;20404;-72
2022/06/09 05:32:22;;;;;;;17.92;8.95;;;;;;;26.15;27.44;98890.81;4970904;28;20093;-69
2022/06/09 05:34:48;;;;;;;20.33;8.95;;;;;;;26.06;27.77;98884.78;4975164;28;20058;-68
2022/06/09 05:37:14;;;;;;;13.10;7.18;;;;;;;25.94;27.70;98890.28;4974915;28;20133;-70
2022/06/09 05:45:09;;;;;;;14.70;6.57;;;;;;;25.42;27.36;98886.69;4960716;28;20049;-70
2022/06/09 05:47:34;;;;;;;11.23;5.07;;;;;;;25.34;26.43;98882.19;4974923;28;20042;-69
2022/06/09 05:50:00;;;;;;;12.13;5.32;;;;;;;25.32;26.34;98881.75;4957643;28;20092;-69
2022/06/09 05:52:27;;;;;;;13.07;4.68;;;;;;;25.22;25.98;98885.00;4974796;28;20047;-68
2022/06/09 05:54:54;;;;;;;8.43;4.45;;;;;;;25.07;25.94;98881.84;4975045;28;20142;-69
2022/06/09 05:57:21;;;;;;;10.25;4.45;;;;;;;24.99;26.25;98888.22;4957447;28;20452;-68
2022/06/09 05:59:47;;;;;;;9.48;4.93;;;;;;;24.89;26.71;98872.44;4975244;28;20039;-69
2022/06/09 06:02:13;;;;;;;6.78;4.22;;;;;;;24.86;26.96;98878.56;4957404;28;20055;-69
2022/06/09 06:04:38;;;;;;;7.90;3.97;;;;;;;24.77;26.33;98873.28;4972394;28;20054;-68
2022/06/09 06:07:04;;;;;;;3.92;3.17;;;;;;;24.70;26.20;98879.28;4957283;28;20133;-69
2022/06/09 06:09:30;;;;;;;8.65;4.40;;;;;;;24.67;27.00;98874.53;4954823;28;20058;-69
2022/06/09 06:11:56;;;;;;;17.75;4.38;;;;;;;24.67;26.88;98874.53;4940480;28;20526;-68
2022/06/09 06:14:23;;;;;;;6.10;4.05;;;;;;;24.64;27.40;98872.53;4973667;28;20070;-68
2022/06/09 06:16:49;;;;;;;8.30;4.93;;;;;;;24.63;27.68;98870.16;4974371;28;20137;-68
2022/06/09 06:19:17;;;;;;;11.63;5.20;;;;;;;24.64;27.77;98869.03;4973893;28;20460;-69
2022/06/09 06:21:44;;;;;;;9.55;3.92;;;;;;;24.67;26.39;98871.84;4956797;28;20109;-70
2022/06/09 06:24:11;;;;;;;6.68;3.15;;;;;;;24.59;27.03;98870.06;4957086;28;20053;-68
2022/06/09 06:26:37;;;;;;;16.13;4.00;;;;;;;24.57;27.86;98874.25;4974450;28;20043;-68
2022/06/09 06:29:04;;;;;;;8.82;3.58;;;;;;;24.59;27.61;98864.66;4956326;28;20535;-70
2022/06/09 06:31:29;;;;;;;4.70;2.45;;;;;;;24.62;26.50;98871.28;4956568;28;20035;-68
2022/06/09 06:33:55;;;;;;;7.70;3.30;;;;;;;24.62;27.57;98872.09;4973931;28;20600;-68
2022/06/09 06:36:21;;;;;;;7.45;3.50;;;;;;;24.58;28.21;98870.41;4956233;28;20042;-69
2022/06/09 06:38:49;;;;;;;7.35;3.80;;;;;;;24.57;28.19;98871.53;4973219;28;20057;-70
2022/06/09 06:41:16;;;;;;;8.77;3.38;;;;;;;24.63;28.99;98870.16;4972671;28;20066;-68
2022/06/09 06:43:41;;;;;;;7.10;3.22;;;;;;;24.66;27.82;98875.69;4955872;28;20519;-68
2022/06/09 06:46:07;;;;;;;7.15;2.90;;;;;;;24.66;27.60;98870.25;4973965;28;20051;-67
2022/06/09 06:48:34;;;;;;;6.22;3.08;;;;;;;24.68;26.67;98872.66;4974100;28;20047;-69
2022/06/09 06:51:01;;;;;;;4.13;2.20;;;;;;;24.59;25.85;98872.78;4955070;28;20047;-68
2022/06/09 06:53:28;;;;;;;4.75;1.80;;;;;;;24.52;25.32;98872.56;4924036;28;20050;-68
2022/06/09 06:55:54;;;;;;;2.55;2.10;;;;;;;24.56;26.49;98865.34;4973615;28;20143;-70
2022/06/09 06:58:19;;;;;;;4.10;2.90;;;;;;;24.52;26.49;98872.56;4973422;28;20066;-71
2022/06/09 07:00:45;;;;;;;7.43;3.33;;;;;;;24.55;27.48;98868.38;4973773;28;20035;-69
2022/06/09 07:03:11;;;;;;;8.68;3.15;;;;;;;24.59;27.43;98871.97;4955902;28;20050;-69
2022/06/09 07:05:37;;;;;;;4.68;2.80;;;;;;;24.59;26.42;98863.84;4955013;28;20061;-70
2022/06/09 07:08:04;;;;;;;9.25;3.92;;;;;;;24.61;27.56;98869.72;4953118;28;20045;-68
2022/06/09 07:10:31;;;;;;;7.43;3.17;;;;;;;24.61;26.99;98861.59;4986746;28;20046;-67
2022/06/09 07:12:58;;;;;;;4.47;2.45;;;;;;;24.65;26.14;98867.91;4941320;28;20062;-68
2022/06/09 07:15:25;;;;;;;3.55;2.60;;;;;;;24.52;27.21;98861.72;4927694;28;20136;-68
2022/06/09 07:17:50;;;;;;;7.28;3.40;;;;;;;24.58;27.28;98865.75;4973322;28;20051;-69
2022/06/09 07:20:16;;;;;;;4.93;3.10;;;;;;;24.64;27.85;98863.59;4972472;28;20066;-70
2022/06/09 07:22:42;;;;;;;4.80;2.75;;;;;;;24.62;28.11;98865.88;4953829;28;20050;-69
2022/06/09 07:25:11;;;;;;;4.78;3.17;;;;;;;24.57;27.03;98866.91;4954450;28;20554;-68
2022/06/09 07:27:37;;;;;;;8.43;3.20;;;;;;;24.54;27.57;98864.88;4935892;28;20043;-68
2022/06/09 07:30:04;;;;;;;5.47;2.65;;;;;;;24.54;28.38;98861.38;4954452;29;20043;-68
2022/06/09 07:32:30;;;;;;;6.55;3.35;;;;;;;24.63;28.97;98862.81;4965670;28;20051;-68
2022/06/09 07:34:56;;;;;;;6.22;3.00;;;;;;;24.68;28.37;98861.81;4972451;28;20518;-67
2022/06/09 07:37:22;;;;;;;8.57;3.10;;;;;;;24.67;28.70;98862.91;4972766;28;20648;-68
2022/06/09 07:39:48;;;;;;;5.63;3.28;;;;;;;24.72;27.91;98865.41;4972488;28;20142;-68
2022/06/09 07:42:13;;;;;;;5.53;2.63;;;;;;;24.75;28.35;98858.50;4939553;28;20416;-69
2022/06/09 07:44:39;;;;;;;5.55;3.03;;;;;;;24.77;27.70;98859.75;4971458;28;20182;-68
2022/06/09 07:47:05;;;;;;;4.00;2.90;;;;;;;24.79;27.46;98859.38;4954558;28;20124;-68
2022/06/09 07:49:31;;;;;;;3.92;2.60;;;;;;;24.69;27.56;98855.25;4972558;28;20054;-68
2022/06/09 07:51:57;;;;;;;6.38;3.10;;;;;;;24.66;27.62;98862.13;4954361;28;20088;-68
2022/06/09 07:54:25;;;;;;;7.10;2.85;;;;;;;24.78;27.67;98855.88;4938068;28;20043;-69
2022/06/09 07:56:51;;;;;;;7.20;2.78;;;;;;;24.86;27.95;98856.88;4952627;28;20050;-67
2022/06/09 07:59:17;;;;;;;4.50;2.47;;;;;;;24.97;27.75;98857.16;4921339;28;20419;-67
2022/06/09 08:01:46;;;;;;;11.88;2.95;;;;;;;24.98;28.36;98856.81;4970538;28;20166;-68
2022/06/09 08:04:12;;;;;;;6.07;3.00;;;;;;;25.02;28.16;98862.34;4952032;28;20300;-68
2022/06/09 08:06:38;;;;;;;6.63;2.83;;;;;;;25.11;28.46;98858.31;4970504;28;20120;-68
2022/06/09 08:09:05;;;;;;;4.93;2.67;;;;;;;25.11;28.42;98854.84;4936224;28;20500;-65
2022/06/09 08:11:37;;;;;;;4.40;2.47;;;;;;;25.05;27.44;98854.28;4952473;28;20053;-72
2022/06/09 08:14:03;;;;;;;4.60;2.90;;;;;;;25.03;27.54;98850.34;4952283;28;20102;-67
2022/06/09 08:16:30;;;;;;;8.60;2.90;;;;;;;25.02;26.87;98849.56;4971740;28;20470;-69
2022/06/09 08:18:57;;;;;;;8.45;5.20;;;;;;;25.09;27.37;98849.78;4954555;28;20043;-68
2022/06/09 08:21:23;;;;;;;4.88;2.90;;;;;;;25.14;27.84;98844.09;4971878;28;20046;-68
2022/06/09 08:23:49;;;;;;;4.80;2.72;;;;;;;25.20;28.63;98844.63;4939186;28;20055;-68
2022/06/09 08:26:14;;;;;;;6.45;2.67;;;;;;;25.20;28.24;98835.72;4954074;28;20042;-67
2022/06/09 08:28:40;;;;;;;9.50;3.05;;;;;;;25.21;28.48;98845.41;4955039;28;20047;-67
2022/06/09 08:31:06;;;;;;;5.03;2.88;;;;;;;25.18;28.00;98848.81;4954258;28;20049;-67
2022/06/09 08:33:32;;;;;;;3.65;2.70;;;;;;;25.16;28.17;98843.78;4938001;28;20055;-68
2022/06/09 08:35:58;;;;;;;4.07;2.60;;;;;;;25.11;27.90;98844.75;4971811;28;20054;-66
2022/06/09 08:38:24;;;;;;;5.22;2.90;;;;;;;25.10;28.10;98848.63;4972012;28;20511;-67
2022/06/09 08:41:01;;;;;;;5.43;3.20;;;;;;;25.12;28.31;98845.56;4954490;28;20070;-68
2022/06/09 08:43:49;;;;;;;5.22;3.65;;;;;;;25.20;29.27;98844.63;4939265;28;20050;-68
2022/06/09 08:47:01;;;;;;;7.68;3.53;;;;;;;25.31;29.21;98853.84;4972153;28;20039;-67
2022/06/09 08:49:41;;;;;;;8.23;3.10;;;;;;;25.26;28.04;98845.16;4951859;28;20051;-68
2022/06/09 08:52:28;;;;;;;3.08;2.58;;;;;;;25.17;27.74;98848.03;4971323;28;20053;-68
2022/06/09 08:54:56;;;;;;;4.50;3.17;;;;;;;25.17;27.86;98847.25;4953312;28;20042;-68
2022/06/09 08:57:30;;;;;;;6.38;3.10;;;;;;;25.00;28.97;98830.16;4952879;28;20043;-67
2022/06/09 08:59:58;;;;;;;7.75;2.90;;;;;;;25.15;29.30;98842.97;4937743;28;20039;-69
2022/06/09 09:03:01;;;;;;;4.53;2.90;;;;;;;25.21;29.69;98834.56;4953691;28;20618;-68
2022/06/09 09:05:33;;;;;;;5.15;3.20;;;;;;;25.31;28.85;98836.78;4954310;28;20090;-67
2022/06/09 09:08:01;;;;;;;7.85;2.85;;;;;;;25.33;28.84;98839.94;4940103;28;20054;-69
2022/06/09 09:10:42;;;;;;;3.80;2.50;;;;;;;25.45;28.85;98831.72;4975361;28;20494;-68
2022/06/09 09:13:14;;;;;;;5.57;3.03;;;;;;;25.53;29.42;98835.38;4957294;28;20066;-68
2022/06/09 09:15:43;;;;;;;3.97;2.60;;;;;;;25.55;29.19;98830.41;4975734;28;20456;-68
2022/06/09 09:18:15;;;;;;;;;;;;;;;25.55;28.38;98830.41;4958926;28;20527;-67
2022/06/09 09:20:57;;;;;;;7.03;3.40;;;;;;;25.46;29.66;98827.84;4958838;28;19922;-68
2022/06/09 09:23:40;;;;;;;3.85;3.17;;;;;;;25.50;28.72;98833.38;4975866;28;20141;-68
2022/06/09 09:26:15;;;;;;;5.15;3.08;;;;;;;25.54;29.64;98823.41;4975177;28;20046;-69
2022/06/09 09:29:01;;;;;;;6.90;3.20;;;;;;;25.59;28.71;98817.72;4975306;28;20050;-68
2022/06/09 09:31:45;;;;;;;6.78;3.13;;;;;;;25.58;28.53;98810.69;4957026;28;20035;-67
2022/06/09 09:34:16;;;;;;;7.72;3.28;;;;;;;25.61;28.61;98813.50;4958293;28;20067;-67
2022/06/09 09:36:46;;;;;;;3.80;3.28;;;;;;;25.61;28.46;98813.50;4975253;28;20070;-68
2022/06/09 09:39:17;;;;;;;4.38;3.10;;;;;;;25.63;28.28;98804.22;4957860;28;20039;-68
2022/06/09 09:41:42;;;;;;;5.32;3.08;;;;;;;25.61;28.58;98813.50;4958504;28;20043;-68
2022/06/09 09:44:17;;;;;;;3.75;2.80;;;;;;;25.53;28.86;98795.50;4957116;28;20097;-68
2022/06/09 09:46:47;;;;;;;6.05;3.30;;;;;;;25.42;29.01;98797.16;4975001;28;20069;-68
2022/06/09 09:49:24;;;;;;;5.80;3.47;;;;;;;25.38;28.74;98801.69;4941248;28;20492;-68
2022/06/09 09:51:50;;;;;;;7.13;3.45;;;;;;;25.42;29.03;98797.16;4973983;28;20043;-68
2022/06/09 09:54:28;;;;;;;8.68;3.30;;;;;;;25.48;28.96;98795.75;4973942;28;20392;-68
2022/06/09 09:57:37;;;;;;;3.65;3.25;;;;;;;25.53;29.01;98800.09;4957711;28;20054;-68
2022/06/09 10:01:27;;;;;;;6.60;3.10;;;;;;;25.58;30.60;98792.50;4952612;28;20038;-71
2022/06/09 10:09:42;;;;;;;5.13;3.20;;;;;;;25.66;29.52;98798.09;4958948;28;20043;-68
2022/06/09 10:12:16;;;;;;;4.22;3.05;;;;;;;25.70;29.03;98791.59;4972724;28;20173;-68
2022/06/09 10:14:47;;;;;;;9.60;3.28;;;;;;;25.70;29.11;98794.31;4939225;28;20463;-68
2022/06/09 10:17:28;;;;;;;5.35;3.38;;;;;;;25.72;29.25;98799.41;4955735;28;20137;-67
2022/06/09 10:20:14;;;;;;;9.13;3.10;;;;;;;25.73;28.99;98800.97;4954416;28;20070;-68
2022/06/09 10:22:43;;;;;;;9.20;3.28;;;;;;;25.73;29.17;98803.69;4971375;28;20155;-69
2022/06/09 10:25:31;;;;;;;5.55;3.58;;;;;;;25.72;29.71;98793.97;4971412;28;20050;-67
2022/06/09 10:28:10;;;;;;;4.90;3.45;;;;;;;25.70;28.99;98788.88;4955460;28;20424;-67
2022/06/09 10:30:45;;;;;;;6.03;3.53;;;;;;;25.71;28.65;98795.13;4954957;28;20042;-68
2022/06/09 10:33:15;;;;;;;4.50;3.13;;;;;;;25.76;30.52;98794.84;4954826;28;20051;-68
2022/06/09 10:35:48;;;;;;;7.82;3.78;;;;;;;25.80;29.16;98793.00;4939219;28;20435;-68
2022/06/09 10:38:29;;;;;;;5.07;3.80;;;;;;;25.82;29.57;98796.97;4935925;29;20463;-68
2022/06/09 10:40:59;;;;;;;7.20;3.80;;;;;;;25.86;30.42;98788.91;4953554;28;20047;-68
2022/06/09 10:43:52;;;;;;;4.22;2.90;;;;;;;25.91;28.12;98776.97;4940064;28;20054;-67
2022/06/09 10:55:56;;;;;;;7.15;3.53;;;;;;;26.13;28.66;98776.28;4958007;28;20093;-67
2022/06/09 10:58:45;;;;;;;8.35;3.50;;;;;;;26.18;29.04;98772.53;4955450;28;20057;-66
2022/06/09 11:01:20;;;;;;;5.55;3.65;;;;;;;26.05;29.09;98772.63;4973440;28;20042;-67
2022/06/09 11:03:48;;;;;;;6.43;3.88;;;;;;;26.09;28.78;98769.19;4955575;28;20051;-68
2022/06/09 11:06:41;;;;;;;4.53;3.30;;;;;;;26.14;28.40;98766.22;4972775;28;20042;-68
2022/06/09 11:09:45;;;;;;;5.38;3.83;;;;;;;26.04;28.45;98764.84;4972929;28;20504;-69
2022/06/09 11:12:35;;;;;;;6.43;3.50;;;;;;;26.04;28.98;98762.13;4972532;28;20133;-67
2022/06/09 11:15:29;;;;;;;4.53;3.50;;;;;;;26.12;28.61;98768.50;4973237;28;20058;-67
2022/06/09 11:18:05;;;;;;;9.57;3.45;;;;;;;26.13;28.87;98751.84;4919639;29;20484;-67
2022/06/09 11:20:47;;;;;;;3.97;3.58;;;;;;;26.15;29.94;98756.91;4952648;29;20055;-67
2022/06/09 11:23:19;;;;;;;6.93;4.10;;;;;;;26.27;29.90;98745.94;4953222;28;20566;-67
2022/06/09 11:26:29;;;;;;;14.05;4.57;;;;;;;26.37;30.60;98742.63;4974729;28;20039;-65
2022/06/09 11:29:40;;;;;;;7.25;4.10;;;;;;;26.47;29.79;98746.69;4943745;28;20049;-69
2022/06/09 11:32:38;;;;;;;10.55;3.63;;;;;;;26.55;30.05;98756.59;4923376;28;20349;-66
2022/06/09 11:35:19;;;;;;;10.23;4.22;;;;;;;26.59;29.01;98754.75;4952339;28;20165;-67
2022/06/09 11:37:53;;;;;;;4.82;3.78;;;;;;;26.54;29.52;98746.09;4971939;28;20038;-68
2022/06/09 11:40:19;;;;;;;6.10;3.70;;;;;;;26.57;29.81;98742.66;4972914;28;20054;-68
2022/06/09 11:42:53;;;;;;;8.63;3.60;;;;;;;26.47;30.13;98743.97;4972371;28;20062;-67
2022/06/09 11:45:25;;;;;;;8.73;4.00;;;;;;;26.34;29.68;98745.28;4954846;28;20563;-68
2022/06/09 11:47:54;;;;;;;3.97;3.60;;;;;;;26.42;29.96;98745.06;4953480;28;20043;-67
2022/06/09 11:50:21;;;;;;;6.30;4.05;;;;;;;26.55;29.28;98747.66;4953060;28;20060;-68
2022/06/09 11:52:48;;;;;;;8.18;4.07;;;;;;;26.59;29.47;98737.63;4953282;28;20066;-67
2022/06/09 11:55:57;;;;;;;5.38;3.83;;;;;;;26.69;29.81;98742.50;4970175;28;20100;-67
2022/06/09 11:58:35;;;;;;;6.32;4.15;;;;;;;26.80;30.30;98748.13;4972433;28;20066;-66
2022/06/09 12:01:20;;;;;;;5.95;3.80;;;;;;;26.91;29.27;98738.22;4954594;28;20513;-70
2022/06/09 12:03:58;;;;;;;7.97;4.20;;;;;;;27.00;30.25;98740.69;4952375;28;20051;-68